createdAt,value
2022-12-06T00:01:32.012Z,3.90
2022-12-06T00:04:02.616Z,3.90
2022-12-06T00:06:32.790Z,4.10
2022-12-06T00:09:00.913Z,4.20
2022-12-06T00:11:31.395Z,4.10
2022-12-06T00:14:02.068Z,4.20
2022-12-06T00:16:30.191Z,4.10
2022-12-06T00:18:58.827Z,4.20
2022-12-06T00:21:32.453Z,4.30
2022-12-06T00:24:03.322Z,4.10
2022-12-06T00:26:31.939Z,4.20
2022-12-06T00:29:00.394Z,4.10
2022-12-06T00:31:30.356Z,4.00
2022-12-06T00:33:58.846Z,4.10
2022-12-06T00:36:29.257Z,3.90
2022-12-06T00:38:59.922Z,4.10
2022-12-06T00:41:27.779Z,4.10
2022-12-06T00:43:55.647Z,4.00
2022-12-06T00:46:26.680Z,3.90
2022-12-06T00:48:55.981Z,4.20
2022-12-06T00:51:25.181Z,4.00
2022-12-06T00:53:52.934Z,4.00
2022-12-06T00:56:20.624Z,4.30
2022-12-06T00:58:48.589Z,4.00
2022-12-06T01:01:20.257Z,4.10
2022-12-06T01:03:51.977Z,3.90
2022-12-06T01:06:22.945Z,4.10
2022-12-06T01:08:50.595Z,4.00
2022-12-06T01:11:18.214Z,3.90
2022-12-06T01:13:45.756Z,3.80
2022-12-06T01:16:17.400Z,4.20
2022-12-06T01:18:45.984Z,3.90
2022-12-06T01:21:18.714Z,4.10
2022-12-06T01:23:47.341Z,4.00
2022-12-06T01:26:18.789Z,3.90
2022-12-06T01:28:46.761Z,3.90
2022-12-06T01:31:15.717Z,3.90
2022-12-06T01:33:44.669Z,4.00
2022-12-06T01:36:21.563Z,4.00
2022-12-06T01:38:51.651Z,4.10
2022-12-06T01:41:21.453Z,4.10
2022-12-06T01:43:49.565Z,3.80
2022-12-06T01:46:32.343Z,3.80
2022-12-06T01:49:18.873Z,4.20
2022-12-06T01:51:51.477Z,4.00
2022-12-06T01:54:20.815Z,4.10
2022-12-06T01:56:49.830Z,3.90
2022-12-06T01:59:18.399Z,3.90
2022-12-06T02:01:47.442Z,4.10
2022-12-06T02:04:17.003Z,4.10
2022-12-06T02:06:46.437Z,3.80
2022-12-06T02:09:16.842Z,3.90
2022-12-06T02:11:44.565Z,4.00
2022-12-06T02:14:17.088Z,4.00
2022-12-06T02:17:03.762Z,4.00
2022-12-06T02:20:13.712Z,4.00
2022-12-06T02:23:13.680Z,4.00
2022-12-06T02:25:44.469Z,3.90
2022-12-06T02:28:28.060Z,4.00
2022-12-06T02:30:59.449Z,3.80
2022-12-06T02:33:48.560Z,3.80
2022-12-06T02:36:48.240Z,3.90
2022-12-06T02:39:21.312Z,3.80
2022-12-06T02:42:05.379Z,4.00
2022-12-06T02:44:53.045Z,4.00
2022-12-06T02:47:24.691Z,4.30
2022-12-06T02:49:54.935Z,4.10
2022-12-06T02:52:26.392Z,4.00
2022-12-06T02:55:01.117Z,4.20
2022-12-06T02:57:46.809Z,3.90
2022-12-06T03:00:33.205Z,4.10
2022-12-06T03:03:16.766Z,3.90
2022-12-06T03:06:02.898Z,4.20
2022-12-06T03:09:00.589Z,3.80
2022-12-06T03:11:49.570Z,3.70
2022-12-06T03:14:25.914Z,4.10
2022-12-06T03:16:53.901Z,4.10
2022-12-06T03:19:24.840Z,4.20
2022-12-06T03:22:07.128Z,4.10
2022-12-06T03:24:38.400Z,4.30
2022-12-06T03:27:10.339Z,4.20
2022-12-06T03:29:41.617Z,4.10
2022-12-06T03:32:10.701Z,4.10
2022-12-06T03:34:47.383Z,4.10
2022-12-06T03:37:19.036Z,4.20
2022-12-06T03:39:56.539Z,4.10
2022-12-06T03:42:24.810Z,4.40
2022-12-06T03:44:53.072Z,4.20
2022-12-06T03:47:43.059Z,4.10
2022-12-06T03:50:18.807Z,4.20
2022-12-06T03:52:46.878Z,4.00
2022-12-06T03:55:14.494Z,4.00
2022-12-06T03:57:42.225Z,4.20
2022-12-06T04:00:10.788Z,4.30
2022-12-06T04:02:41.426Z,4.30
2022-12-06T04:05:09.566Z,4.40
2022-12-06T04:07:37.305Z,4.00
2022-12-06T04:10:05.843Z,4.20
2022-12-06T04:12:51.241Z,4.00
2022-12-06T04:15:21.134Z,4.10
2022-12-06T04:18:05.003Z,4.10
2022-12-06T04:20:52.917Z,4.60
2022-12-06T04:23:21.544Z,4.40
2022-12-06T04:25:49.171Z,4.00
2022-12-06T04:28:32.832Z,4.10
2022-12-06T04:31:21.673Z,4.40
2022-12-06T04:34:06.949Z,4.30
2022-12-06T04:36:51.110Z,4.40
2022-12-06T04:42:04.455Z,3.80
2022-12-06T04:44:32.043Z,4.20
2022-12-06T04:47:00.298Z,4.10
2022-12-06T04:49:28.119Z,4.20
2022-12-06T04:51:56.346Z,4.30
2022-12-06T04:54:24.703Z,4.20
2022-12-06T04:56:53.113Z,4.30
2022-12-06T04:59:21.068Z,4.40
2022-12-06T05:01:48.660Z,4.40
2022-12-06T05:04:16.518Z,4.30
2022-12-06T05:06:44.476Z,4.20
2022-12-06T05:09:12.949Z,4.30
2022-12-06T05:11:41.811Z,4.00
2022-12-06T05:14:09.430Z,4.10
2022-12-06T05:16:37.251Z,4.20
2022-12-06T05:19:05.117Z,4.40
2022-12-06T05:21:32.688Z,4.10
2022-12-06T05:24:00.319Z,4.50
2022-12-06T05:26:29.032Z,4.20
2022-12-06T05:28:57.730Z,4.10
2022-12-06T05:31:26.610Z,4.20
2022-12-06T05:33:54.747Z,4.00
2022-12-06T05:36:27.399Z,4.30
2022-12-06T05:38:57.111Z,4.20
2022-12-06T05:41:24.987Z,4.20
2022-12-06T05:43:52.691Z,4.40
2022-12-06T05:46:20.375Z,4.30
2022-12-06T05:48:48.171Z,4.20
2022-12-06T05:51:15.752Z,4.30
2022-12-06T05:53:43.332Z,4.10
2022-12-06T05:56:12.778Z,4.10
2022-12-06T05:58:41.056Z,4.00
2022-12-06T06:01:09.437Z,4.40
2022-12-06T06:03:39.896Z,4.20
2022-12-06T06:06:10.637Z,4.30
2022-12-06T06:08:38.367Z,4.20
2022-12-06T06:11:05.991Z,4.10
2022-12-06T06:13:33.674Z,4.20
2022-12-06T06:16:01.292Z,4.20
2022-12-06T06:18:28.878Z,4.40
2022-12-06T06:20:59.357Z,4.40
2022-12-06T06:23:28.649Z,4.10
2022-12-06T06:25:56.626Z,4.30
2022-12-06T06:28:24.663Z,4.50
2022-12-06T06:30:52.353Z,4.20
2022-12-06T06:33:24.105Z,4.60
2022-12-06T06:35:52.153Z,4.40
2022-12-06T06:38:19.843Z,4.60
2022-12-06T06:40:47.463Z,4.70
2022-12-06T06:43:18.495Z,4.30
2022-12-06T06:46:04.493Z,5.10
2022-12-06T06:48:36.236Z,4.60
2022-12-06T06:51:11.854Z,4.40
2022-12-06T06:53:40.002Z,4.50
2022-12-06T06:56:08.622Z,4.40
2022-12-06T06:58:36.260Z,4.00
2022-12-06T07:01:05.822Z,4.40
2022-12-06T07:03:34.694Z,4.40
2022-12-06T07:06:09.395Z,4.60
2022-12-06T07:08:38.959Z,4.40
2022-12-06T07:11:06.755Z,4.60
2022-12-06T07:13:35.957Z,4.30
2022-12-06T07:16:06.776Z,4.40
2022-12-06T07:18:34.798Z,4.60
2022-12-06T07:21:05.346Z,4.70
2022-12-06T07:23:35.641Z,4.50
2022-12-06T07:26:20.920Z,4.50
2022-12-06T07:28:50.195Z,4.60
2022-12-06T07:31:21.504Z,5.00
2022-12-06T07:33:53.489Z,4.40
2022-12-06T07:36:23.150Z,4.30
2022-12-06T07:38:53.144Z,4.70
2022-12-06T07:41:38.648Z,4.50
2022-12-06T07:44:29.065Z,4.70
2022-12-06T07:46:57.653Z,4.60
2022-12-06T07:49:25.776Z,4.70
2022-12-06T07:51:55.923Z,4.40
2022-12-06T07:54:24.599Z,4.50
2022-12-06T07:56:52.276Z,4.40
2022-12-06T07:59:19.943Z,4.80
2022-12-06T08:01:47.927Z,4.90
2022-12-06T08:04:15.719Z,4.50
2022-12-06T08:06:43.496Z,5.00
2022-12-06T08:09:12.117Z,4.70
2022-12-06T08:11:39.716Z,4.80
2022-12-06T08:14:07.403Z,4.70
2022-12-06T08:16:35.110Z,4.70
2022-12-06T08:19:03.283Z,4.70
2022-12-06T08:21:32.618Z,4.70
2022-12-06T08:24:04.234Z,4.70
2022-12-06T08:26:31.947Z,4.40
2022-12-06T08:29:01.416Z,4.60
2022-12-06T08:31:37.037Z,4.60
2022-12-06T08:34:08.379Z,4.70
2022-12-06T08:36:40.937Z,4.40
2022-12-06T08:39:11.451Z,4.60
2022-12-06T08:41:55.742Z,4.60
2022-12-06T08:44:27.938Z,4.40
2022-12-06T08:46:57.057Z,4.50
2022-12-06T08:49:25.303Z,4.50
2022-12-06T08:51:53.610Z,4.60
2022-12-06T08:54:23.671Z,4.70
2022-12-06T08:56:52.237Z,4.80
2022-12-06T08:59:20.301Z,4.50
2022-12-06T09:01:50.517Z,4.30
2022-12-06T09:04:18.397Z,4.60
2022-12-06T09:06:46.627Z,4.90
2022-12-06T09:09:16.589Z,4.90
2022-12-06T09:11:45.607Z,4.60
2022-12-06T09:14:21.077Z,4.60
2022-12-06T09:16:51.228Z,4.60
2022-12-06T09:19:21.313Z,4.50
2022-12-06T09:21:49.144Z,4.40
2022-12-06T09:24:22.350Z,4.40
2022-12-06T09:26:54.159Z,4.80
2022-12-06T09:29:22.135Z,4.50
2022-12-06T09:31:49.834Z,4.70
2022-12-06T09:34:17.606Z,4.60
2022-12-06T09:36:53.097Z,4.70
2022-12-06T09:39:35.904Z,4.60
2022-12-06T09:42:22.699Z,4.70
2022-12-06T09:45:25.548Z,5.10
2022-12-06T09:48:25.107Z,4.80
2022-12-06T09:51:08.700Z,5.40
2022-12-06T09:54:01.713Z,5.30
2022-12-06T09:56:46.287Z,4.80
2022-12-06T09:59:32.677Z,5.40
2022-12-06T10:02:19.441Z,5.40
2022-12-06T10:04:56.200Z,4.90
2022-12-06T10:07:56.150Z,5.00
2022-12-06T10:10:51.638Z,4.90
2022-12-06T10:13:43.206Z,5.20
2022-12-06T10:16:42.838Z,5.50
2022-12-06T10:19:47.142Z,5.20
2022-12-06T10:22:46.818Z,4.90
2022-12-06T10:25:24.886Z,5.00
2022-12-06T10:28:13.404Z,4.90
2022-12-06T10:30:50.757Z,4.80
2022-12-06T10:33:38.055Z,4.90
2022-12-06T10:36:07.953Z,4.80
2022-12-06T10:38:44.435Z,4.60
2022-12-06T10:41:21.536Z,4.70
2022-12-06T10:44:04.336Z,4.80
2022-12-06T10:46:58.744Z,4.50
2022-12-06T10:52:45.333Z,4.70
2022-12-06T10:55:19.486Z,5.10
2022-12-06T10:57:57.201Z,4.60
2022-12-06T11:00:34.535Z,4.60
2022-12-06T11:03:17.798Z,4.70
2022-12-06T11:05:48.910Z,4.60
2022-12-06T11:08:21.760Z,4.50
2022-12-06T11:10:51.078Z,4.80
2022-12-06T11:13:38.990Z,4.60
2022-12-06T11:16:15.908Z,4.60
2022-12-06T11:18:46.220Z,4.80
2022-12-06T11:21:36.817Z,5.50
2022-12-06T11:24:15.762Z,6.20
2022-12-06T11:26:51.901Z,4.60
2022-12-06T11:29:19.662Z,4.50
2022-12-06T11:31:52.040Z,4.50
2022-12-06T11:34:36.320Z,4.40
2022-12-06T11:37:05.500Z,4.30
2022-12-06T11:39:34.621Z,4.40
2022-12-06T11:42:08.650Z,4.20
2022-12-06T11:44:49.412Z,4.20
2022-12-06T11:47:24.679Z,4.80
2022-12-06T11:49:56.067Z,5.10
2022-12-06T11:52:45.426Z,4.40
2022-12-06T11:55:21.112Z,4.40
2022-12-06T11:57:55.959Z,4.50
2022-12-06T12:00:25.409Z,5.20
2022-12-06T12:02:55.561Z,4.80
2022-12-06T12:05:30.845Z,4.80
2022-12-06T12:08:21.101Z,4.70
2022-12-06T12:11:07.641Z,5.20
2022-12-06T12:13:52.260Z,4.70
2022-12-06T12:16:24.035Z,4.70
2022-12-06T12:19:28.085Z,4.90
2022-12-06T12:21:58.743Z,6.40
2022-12-06T12:25:17.440Z,5.80
2022-12-06T12:27:39.135Z,5.10
2022-12-06T12:30:24.696Z,4.80
2022-12-06T12:33:10.205Z,4.90
2022-12-06T12:35:42.947Z,4.50
2022-12-06T12:38:11.935Z,4.20
2022-12-06T12:40:44.210Z,4.40
2022-12-06T12:43:11.822Z,5.60
2022-12-06T12:45:41.534Z,5.10
2022-12-06T12:48:27.053Z,4.50
2022-12-06T12:50:59.916Z,4.60
2022-12-06T12:53:31.078Z,4.60
2022-12-06T12:56:16.747Z,5.10
2022-12-06T12:58:47.364Z,4.70
2022-12-06T13:01:37.986Z,4.40
2022-12-06T13:04:37.765Z,4.40
2022-12-06T13:07:21.352Z,4.60
2022-12-06T13:10:00.115Z,4.50
2022-12-06T13:12:48.496Z,4.60
2022-12-06T13:15:18.953Z,4.10
2022-12-06T13:17:59.945Z,4.60
2022-12-06T13:20:32.355Z,5.10
2022-12-06T13:23:05.806Z,4.90
2022-12-06T13:25:40.480Z,4.80
2022-12-06T13:28:21.008Z,5.10
2022-12-06T13:30:56.766Z,4.90
2022-12-06T13:33:32.632Z,4.90
2022-12-06T13:38:42.572Z,5.20
2022-12-06T13:41:52.725Z,5.30
2022-12-06T13:44:43.069Z,5.70
2022-12-06T13:47:28.670Z,4.40
2022-12-06T13:50:01.644Z,4.80
2022-12-06T13:52:45.465Z,4.60
2022-12-06T13:55:29.074Z,4.80
2022-12-06T13:57:59.724Z,6.00
2022-12-06T14:00:30.552Z,5.20
2022-12-06T14:03:21.417Z,4.70
2022-12-06T14:06:15.957Z,5.00
2022-12-06T14:08:53.122Z,4.70
2022-12-06T14:11:29.190Z,4.60
2022-12-06T14:13:59.729Z,4.80
2022-12-06T14:16:59.414Z,4.20
2022-12-06T14:19:48.478Z,4.40
2022-12-06T14:22:30.094Z,4.70
2022-12-06T14:25:05.379Z,4.20
2022-12-06T14:27:42.308Z,4.80
2022-12-06T14:30:13.122Z,4.80
2022-12-06T14:32:46.534Z,4.90
2022-12-06T14:35:37.126Z,4.70
2022-12-06T14:38:20.675Z,4.70
2022-12-06T14:41:06.282Z,4.60
2022-12-06T14:43:34.850Z,4.50
2022-12-06T14:46:06.447Z,4.50
2022-12-06T14:48:49.579Z,4.70
2022-12-06T14:51:36.135Z,4.40
2022-12-06T14:54:30.410Z,4.80
2022-12-06T14:56:58.287Z,4.90
2022-12-06T15:00:12.957Z,4.50
2022-12-06T15:02:31.313Z,4.70
2022-12-06T15:04:59.592Z,4.60
2022-12-06T15:07:43.359Z,4.70
2022-12-06T15:10:22.350Z,4.80
2022-12-06T15:12:56.443Z,5.20
2022-12-06T15:15:42.097Z,4.40
2022-12-06T15:18:27.075Z,4.80
2022-12-06T15:20:55.410Z,4.60
2022-12-06T15:23:29.959Z,5.10
2022-12-06T15:25:57.608Z,5.30
2022-12-06T15:28:25.247Z,5.30
2022-12-06T15:30:53.393Z,6.20
2022-12-06T15:33:24.369Z,5.90
2022-12-06T15:35:53.883Z,5.80
2022-12-06T15:38:21.652Z,5.30
2022-12-06T15:40:51.592Z,4.40
2022-12-06T15:43:24.568Z,4.50
2022-12-06T15:45:52.846Z,4.90
2022-12-06T15:48:20.490Z,4.80
2022-12-06T15:50:48.658Z,5.40
2022-12-06T15:53:19.214Z,4.80
2022-12-06T15:55:47.211Z,4.90
2022-12-06T15:58:15.175Z,5.40
2022-12-06T16:00:43.099Z,5.80
2022-12-06T16:03:11.047Z,4.90
2022-12-06T16:05:38.715Z,4.60
2022-12-06T16:08:06.362Z,4.80
2022-12-06T16:11:03.414Z,5.10
2022-12-06T16:13:22.519Z,4.80
2022-12-06T16:15:52.481Z,4.90
2022-12-06T16:18:20.201Z,5.40
2022-12-06T16:20:48.170Z,5.20
2022-12-06T16:24:10.834Z,5.90
2022-12-06T16:26:23.282Z,5.30
2022-12-06T16:28:51.090Z,4.60
2022-12-06T16:31:18.879Z,4.90
2022-12-06T16:33:46.645Z,4.60
2022-12-06T16:36:20.931Z,4.60
2022-12-06T16:38:54.253Z,4.80
2022-12-06T16:41:38.148Z,4.70
2022-12-06T16:44:05.822Z,5.20
2022-12-06T16:46:36.165Z,5.60
2022-12-06T16:49:43.532Z,4.80
2022-12-06T16:51:55.630Z,4.80
2022-12-06T16:54:23.229Z,5.60
2022-12-06T16:56:50.828Z,6.30
2022-12-06T16:59:18.498Z,6.40
2022-12-06T17:01:51.239Z,5.70
2022-12-06T17:04:19.194Z,5.50
2022-12-06T17:06:47.109Z,6.00
2022-12-06T17:09:15.342Z,5.30
2022-12-06T17:11:59.278Z,5.50
2022-12-06T17:14:27.531Z,5.40
2022-12-06T17:16:56.904Z,5.40
2022-12-06T17:19:28.006Z,6.40
2022-12-06T17:21:55.930Z,5.70
2022-12-06T17:24:25.873Z,5.60
2022-12-06T17:26:55.108Z,5.60
2022-12-06T17:29:23.830Z,5.30
2022-12-06T17:31:52.498Z,5.70
2022-12-06T17:34:21.824Z,5.90
2022-12-06T17:36:49.714Z,5.40
2022-12-06T17:39:19.967Z,4.70
2022-12-06T17:42:03.612Z,4.60
2022-12-06T17:44:31.524Z,5.00
2022-12-06T17:46:59.313Z,5.30
2022-12-06T17:49:28.654Z,6.10
2022-12-06T17:51:56.919Z,5.30
2022-12-06T17:54:24.535Z,5.30
2022-12-06T17:56:53.880Z,5.40
2022-12-06T17:59:24.189Z,5.40
2022-12-06T18:04:41.648Z,6.00
2022-12-06T18:07:10.572Z,5.00
2022-12-06T18:09:38.203Z,4.70
2022-12-06T18:12:08.767Z,4.90
2022-12-06T18:14:36.482Z,4.70
2022-12-06T18:17:04.331Z,4.50
2022-12-06T18:19:33.637Z,4.10
2022-12-06T18:22:01.883Z,4.10
2022-12-06T18:24:35.223Z,4.10
2022-12-06T18:29:32.742Z,4.50
2022-12-06T18:32:00.551Z,4.60
2022-12-06T18:34:28.623Z,4.20
2022-12-06T18:36:56.282Z,4.40
2022-12-06T18:39:27.781Z,4.20
2022-12-06T18:41:55.506Z,4.40
2022-12-06T18:44:23.872Z,4.30
2022-12-06T18:46:51.800Z,4.40
2022-12-06T18:49:19.503Z,4.30
2022-12-06T18:51:47.334Z,4.50
2022-12-06T18:54:15.011Z,4.60
2022-12-06T18:56:43.066Z,4.20
2022-12-06T18:59:11.497Z,4.30
2022-12-06T19:01:40.441Z,4.20
2022-12-06T19:04:14.154Z,4.20
2022-12-06T19:06:43.360Z,3.90
2022-12-06T19:09:14.995Z,4.00
2022-12-06T19:11:45.971Z,4.30
2022-12-06T19:14:14.672Z,4.30
2022-12-06T19:16:45.260Z,4.30
2022-12-06T19:19:23.455Z,4.40
2022-12-06T19:21:53.507Z,4.30
2022-12-06T19:24:24.534Z,4.40
2022-12-06T19:26:55.056Z,4.40
2022-12-06T19:29:24.239Z,4.40
2022-12-06T19:31:52.510Z,4.50
2022-12-06T19:34:22.807Z,5.00
2022-12-06T19:36:52.621Z,5.20
2022-12-06T19:39:21.277Z,5.00
2022-12-06T19:42:04.495Z,4.70
2022-12-06T19:44:32.557Z,4.70
2022-12-06T19:47:00.215Z,4.20
2022-12-06T19:49:28.928Z,4.50
2022-12-06T19:51:56.761Z,4.20
2022-12-06T19:54:29.871Z,4.30
2022-12-06T19:56:59.451Z,4.40
2022-12-06T19:59:30.824Z,4.30
2022-12-06T20:01:58.614Z,4.10
2022-12-06T20:04:40.835Z,4.20
2022-12-06T20:07:09.677Z,4.20
2022-12-06T20:09:37.271Z,4.00
2022-12-06T20:12:05.534Z,4.30
2022-12-06T20:14:33.903Z,4.10
2022-12-06T20:17:03.524Z,4.40
2022-12-06T20:19:31.235Z,4.40
2022-12-06T20:21:58.865Z,4.00
2022-12-06T20:24:26.535Z,3.80
2022-12-06T20:26:55.693Z,4.30
2022-12-06T20:29:23.394Z,4.40
2022-12-06T20:31:51.510Z,4.50
2022-12-06T20:34:19.515Z,4.20
2022-12-06T20:36:47.496Z,4.20
2022-12-06T20:39:22.173Z,4.50
2022-12-06T20:41:51.107Z,4.60
2022-12-06T20:44:19.358Z,4.50
2022-12-06T20:46:49.885Z,4.30
2022-12-06T20:49:17.823Z,4.30
2022-12-06T20:51:49.663Z,4.00
2022-12-06T20:54:21.313Z,4.20
2022-12-06T20:56:52.012Z,3.90
2022-12-06T20:59:20.691Z,3.90
2022-12-06T21:01:48.991Z,3.90
2022-12-06T21:04:17.443Z,3.90
2022-12-06T21:06:45.224Z,3.80
2022-12-06T21:09:12.815Z,4.10
2022-12-06T21:11:40.868Z,3.90
2022-12-06T21:14:12.715Z,3.70
2022-12-06T21:16:42.703Z,5.60
2022-12-06T21:19:16.914Z,3.80
2022-12-06T21:21:49.897Z,4.10
2022-12-06T21:24:20.129Z,3.90
2022-12-06T21:26:48.194Z,3.90
2022-12-06T21:29:20.867Z,3.80
2022-12-06T21:31:50.920Z,3.80
2022-12-06T21:34:18.830Z,3.80
2022-12-06T21:36:46.473Z,4.10
2022-12-06T21:39:14.893Z,3.70
2022-12-06T21:41:42.559Z,10.40
2022-12-06T21:44:10.215Z,3.90
2022-12-06T21:46:37.899Z,3.90
2022-12-06T21:49:05.860Z,3.80
2022-12-06T21:51:33.727Z,3.80
2022-12-06T21:54:01.400Z,4.00
2022-12-06T21:56:30.649Z,4.30
2022-12-06T21:59:00.974Z,4.00
2022-12-06T22:01:30.388Z,4.10
2022-12-06T22:04:01.457Z,3.90
2022-12-06T22:06:29.736Z,4.10
2022-12-06T22:09:00.021Z,4.10
2022-12-06T22:11:29.639Z,4.00
2022-12-06T22:13:59.034Z,4.10
2022-12-06T22:16:28.664Z,4.10
2022-12-06T22:18:57.779Z,4.20
2022-12-06T22:21:27.990Z,4.20
2022-12-06T22:23:58.129Z,4.20
2022-12-06T22:26:30.691Z,4.30
2022-12-06T22:28:59.713Z,4.10
2022-12-06T22:31:30.177Z,4.30
2022-12-06T22:33:58.699Z,4.20
2022-12-06T22:36:27.884Z,4.10
2022-12-06T22:38:58.649Z,3.90
2022-12-06T22:41:28.004Z,4.10
2022-12-06T22:43:57.998Z,4.20
2022-12-06T22:46:26.997Z,4.00
2022-12-06T22:48:56.510Z,3.90
2022-12-06T22:51:30.233Z,4.00
2022-12-06T22:54:00.795Z,3.60
2022-12-06T22:56:30.136Z,3.80
2022-12-06T22:58:59.543Z,3.30
2022-12-06T23:01:35.154Z,3.70
2022-12-06T23:04:05.761Z,3.70
2022-12-06T23:06:35.282Z,3.50
2022-12-06T23:09:05.548Z,3.90
2022-12-06T23:11:36.194Z,3.60
2022-12-06T23:14:04.426Z,3.70
2022-12-06T23:16:33.204Z,3.80
2022-12-06T23:19:03.113Z,3.60
2022-12-06T23:21:36.191Z,3.50
2022-12-06T23:24:07.322Z,3.70
2022-12-06T23:26:38.569Z,3.60
2022-12-06T23:29:07.039Z,4.00
2022-12-06T23:31:38.167Z,3.90
2022-12-06T23:34:20.292Z,3.90
2022-12-06T23:36:48.824Z,3.80
2022-12-06T23:39:16.761Z,3.80
2022-12-06T23:41:45.078Z,3.60
2022-12-06T23:44:13.439Z,3.50
2022-12-06T23:46:43.373Z,3.80
2022-12-06T23:49:17.436Z,3.90
2022-12-06T23:54:16.153Z,3.90
2022-12-06T23:56:44.337Z,3.60
2022-12-06T23:59:14.650Z,3.60
